RVE weather

Los Colonizadores Airport
Saravena, Arauca Department, Colombia

Public forecast

Using degrees Celsius for public forecast. Weather courtesy of forecast.io.

METAR (pilot weather report)

Report is more than 6 hours old.

Retrieved 2019/03/20 14:00 UTC (6 days ago):

SKSA 201400Z 30004KT 8000 4000N VCSH BKN040 OVC060 24/XX A2999 RMK HZ VCSH SW/N

TAF (pilot weather forecast)

Forecast is more than 12 hours old.

Closest forecast is San Antonio Del Tachira Airport, 63.7 nm (117.9 km) NNW. Retrieved 2019/03/26 00:00 UTC (14 hours ago):

TAF SVSA 252200Z 2600/2700 33002KT 9000 DZ SCT016 TX28/2615Z TN18/2606Z BECMG 2600/2604 26002KT 9000 DZ SCT016 BKN100